createdAt,value
2023-07-07T00:00:35.285Z,14.20
2023-07-07T00:03:03.145Z,14.10
2023-07-07T00:05:31.938Z,14.10
2023-07-07T00:07:59.705Z,14.10
2023-07-07T00:10:28.939Z,14.00
2023-07-07T00:12:56.825Z,14.00
2023-07-07T00:15:24.595Z,13.90
2023-07-07T00:17:52.421Z,13.90
2023-07-07T00:20:22.502Z,13.90
2023-07-07T00:22:50.254Z,13.90
2023-07-07T00:25:18.437Z,13.80
2023-07-07T00:27:47.550Z,13.80
2023-07-07T00:30:15.890Z,13.80
2023-07-07T00:32:43.812Z,13.80
2023-07-07T00:35:11.692Z,13.70
2023-07-07T00:37:39.700Z,13.70
2023-07-07T00:40:08.766Z,13.70
2023-07-07T00:42:36.545Z,13.60
2023-07-07T00:45:17.944Z,13.60
2023-07-07T00:47:51.482Z,13.60
2023-07-07T00:50:22.284Z,13.50
2023-07-07T00:52:50.168Z,13.50
2023-07-07T00:55:22.009Z,13.50
2023-07-07T00:57:50.260Z,13.40
2023-07-07T01:00:19.988Z,13.40
2023-07-07T01:02:55.395Z,13.40
2023-07-07T01:05:25.663Z,13.30
2023-07-07T01:07:54.161Z,13.30
2023-07-07T01:10:22.993Z,13.30
2023-07-07T01:12:52.310Z,13.30
2023-07-07T01:15:23.147Z,13.20
2023-07-07T01:18:06.820Z,13.20
2023-07-07T01:20:38.559Z,13.10
2023-07-07T01:23:36.335Z,13.10
2023-07-07T01:26:33.470Z,13.10
2023-07-07T01:29:15.830Z,13.10
2023-07-07T01:31:50.196Z,13.00
2023-07-07T01:34:18.646Z,13.00
2023-07-07T01:36:46.612Z,13.00
2023-07-07T01:39:14.957Z,13.00
2023-07-07T01:41:51.343Z,12.90
2023-07-07T01:44:25.804Z,12.90
2023-07-07T01:46:59.260Z,12.90
2023-07-07T01:49:32.153Z,12.90
2023-07-07T01:52:05.265Z,12.80
2023-07-07T01:54:36.316Z,12.80
2023-07-07T01:57:04.998Z,12.80
2023-07-07T01:59:35.067Z,12.80
2023-07-07T02:02:04.652Z,12.70
2023-07-07T02:04:32.530Z,12.70
2023-07-07T02:07:00.386Z,12.60
2023-07-07T02:09:28.615Z,12.50
2023-07-07T02:11:56.366Z,12.50
2023-07-07T02:14:24.195Z,12.50
2023-07-07T02:16:51.970Z,12.50
2023-07-07T02:19:21.076Z,12.40
2023-07-07T02:21:48.885Z,12.40
2023-07-07T02:24:16.652Z,12.40
2023-07-07T02:26:44.434Z,12.30
2023-07-07T02:29:12.215Z,12.30
2023-07-07T02:31:39.970Z,12.30
2023-07-07T02:34:07.737Z,12.30
2023-07-07T02:36:37.743Z,12.30
2023-07-07T02:39:05.952Z,12.30
2023-07-07T02:41:33.695Z,12.20
2023-07-07T02:44:01.572Z,12.20
2023-07-07T02:46:29.444Z,12.20
2023-07-07T02:48:57.210Z,12.20
2023-07-07T02:51:24.948Z,12.10
2023-07-07T02:53:54.027Z,12.10
2023-07-07T02:56:21.807Z,12.00
2023-07-07T02:58:49.565Z,12.00
2023-07-07T03:01:20.917Z,12.00
2023-07-07T03:03:51.274Z,11.90
2023-07-07T03:06:21.488Z,11.90
2023-07-07T03:08:49.803Z,11.90
2023-07-07T03:11:21.039Z,11.90
2023-07-07T03:13:49.792Z,11.90
2023-07-07T03:16:21.829Z,11.90
2023-07-07T03:18:50.638Z,11.90
2023-07-07T03:21:19.135Z,11.90
2023-07-07T03:23:46.945Z,11.90
2023-07-07T03:26:17.279Z,11.80
2023-07-07T03:28:46.600Z,11.80
2023-07-07T03:31:16.202Z,11.80
2023-07-07T03:33:46.124Z,11.70
2023-07-07T03:36:14.948Z,11.70
2023-07-07T03:38:43.896Z,11.70
2023-07-07T03:41:14.977Z,11.60
2023-07-07T03:43:46.368Z,11.60
2023-07-07T03:46:16.095Z,11.60
2023-07-07T03:48:44.630Z,11.60
2023-07-07T03:51:13.370Z,11.60
2023-07-07T03:53:41.731Z,11.60
2023-07-07T03:56:09.770Z,11.60
2023-07-07T03:58:37.873Z,11.60
2023-07-07T04:01:07.086Z,11.60
2023-07-07T04:03:36.288Z,11.60
2023-07-07T04:06:05.148Z,11.70
2023-07-07T04:08:34.504Z,11.60
2023-07-07T04:11:04.151Z,11.60
2023-07-07T04:13:33.768Z,11.70
2023-07-07T04:16:03.302Z,11.70
2023-07-07T04:18:33.209Z,11.70
2023-07-07T04:21:03.973Z,11.70
2023-07-07T04:23:31.718Z,11.70
2023-07-07T04:25:59.483Z,11.70
2023-07-07T04:28:27.508Z,11.80
2023-07-07T04:30:57.225Z,11.80
2023-07-07T04:33:27.007Z,11.80
2023-07-07T04:35:55.558Z,11.80
2023-07-07T04:38:32.024Z,11.80
2023-07-07T04:41:10.582Z,11.90
2023-07-07T04:43:40.003Z,11.90
2023-07-07T04:46:09.173Z,11.90
2023-07-07T04:48:37.642Z,12.00
2023-07-07T04:51:08.013Z,11.90
2023-07-07T04:53:38.953Z,12.00
2023-07-07T04:56:11.600Z,12.00
2023-07-07T04:58:40.533Z,12.10
2023-07-07T05:01:10.244Z,12.10
2023-07-07T05:03:40.341Z,12.10
2023-07-07T05:06:08.706Z,12.20
2023-07-07T05:08:39.582Z,12.20
2023-07-07T05:11:08.842Z,12.30
2023-07-07T05:13:36.730Z,12.30
2023-07-07T05:16:06.616Z,12.40
2023-07-07T05:18:34.760Z,12.40
2023-07-07T05:21:06.191Z,12.50
2023-07-07T05:23:34.787Z,12.50
2023-07-07T05:26:04.690Z,12.60
2023-07-07T05:28:32.689Z,12.60
2023-07-07T05:31:00.573Z,12.70
2023-07-07T05:33:30.144Z,12.80
2023-07-07T05:36:02.457Z,12.80
2023-07-07T05:38:31.200Z,12.90
2023-07-07T05:40:59.801Z,13.00
2023-07-07T05:43:29.366Z,13.10
2023-07-07T05:45:58.302Z,13.20
2023-07-07T05:48:26.805Z,13.30
2023-07-07T05:50:59.768Z,13.40
2023-07-07T05:53:28.729Z,13.40
2023-07-07T05:56:04.609Z,13.60
2023-07-07T05:58:33.721Z,13.60
2023-07-07T06:01:01.994Z,13.70
2023-07-07T06:03:31.223Z,13.80
2023-07-07T06:05:59.030Z,13.90
2023-07-07T06:08:26.767Z,14.10
2023-07-07T06:10:54.630Z,14.10
2023-07-07T06:13:25.201Z,14.20
2023-07-07T06:15:55.184Z,14.30
2023-07-07T06:18:23.668Z,14.40
2023-07-07T06:20:54.131Z,14.60
2023-07-07T06:23:22.310Z,14.70
2023-07-07T06:25:50.367Z,14.70
2023-07-07T06:28:18.959Z,14.90
2023-07-07T06:30:48.904Z,15.00
2023-07-07T06:33:20.914Z,15.10
2023-07-07T06:35:50.076Z,15.10
2023-07-07T06:38:18.318Z,15.20
2023-07-07T06:40:48.024Z,15.30
2023-07-07T06:43:19.048Z,15.40
2023-07-07T06:45:47.899Z,15.50
2023-07-07T06:48:15.676Z,15.70
2023-07-07T06:50:45.066Z,15.80
2023-07-07T06:53:12.800Z,15.90
2023-07-07T06:55:41.289Z,16.00
2023-07-07T06:58:10.675Z,16.10
2023-07-07T07:00:38.517Z,16.20
2023-07-07T07:03:06.428Z,16.40
2023-07-07T07:05:34.393Z,16.50
2023-07-07T07:08:03.514Z,16.60
2023-07-07T07:10:31.256Z,16.70
2023-07-07T07:12:59.028Z,16.90
2023-07-07T07:15:26.807Z,17.10
2023-07-07T07:17:54.602Z,17.30
2023-07-07T07:20:22.380Z,17.50
2023-07-07T07:22:50.704Z,17.60
2023-07-07T07:25:19.940Z,17.80
2023-07-07T07:27:47.771Z,18.00
2023-07-07T07:30:16.669Z,18.10
2023-07-07T07:32:44.794Z,18.20
2023-07-07T07:35:13.577Z,18.30
2023-07-07T07:37:42.229Z,18.50
2023-07-07T07:40:10.901Z,18.60
2023-07-07T07:42:40.067Z,18.80
2023-07-07T07:45:09.382Z,18.90
2023-07-07T07:47:37.311Z,19.10
2023-07-07T07:50:05.846Z,19.30
2023-07-07T07:52:33.898Z,19.50
2023-07-07T07:55:01.715Z,19.70
2023-07-07T07:57:29.640Z,19.90
2023-07-07T07:59:58.852Z,20.00
2023-07-07T08:02:26.726Z,20.20
2023-07-07T08:04:54.830Z,20.40
2023-07-07T08:07:23.120Z,20.60
2023-07-07T08:09:51.326Z,20.70
2023-07-07T08:12:19.192Z,21.00
2023-07-07T08:14:47.024Z,21.10
2023-07-07T08:17:17.323Z,21.30
2023-07-07T08:19:47.274Z,21.50
2023-07-07T08:22:17.908Z,21.70
2023-07-07T08:24:48.936Z,21.90
2023-07-07T08:29:48.437Z,22.20
2023-07-07T08:32:20.351Z,22.40
2023-07-07T08:34:54.482Z,22.50
2023-07-07T08:37:23.583Z,22.70
2023-07-07T08:39:51.424Z,22.90
2023-07-07T08:42:27.474Z,23.10
2023-07-07T08:44:57.153Z,23.30
2023-07-07T08:47:53.565Z,23.40
2023-07-07T08:50:32.698Z,23.60
2023-07-07T08:53:10.682Z,23.70
2023-07-07T08:55:49.934Z,23.80
2023-07-07T08:58:29.575Z,23.90
2023-07-07T09:01:17.727Z,24.10
2023-07-07T09:04:03.835Z,24.20
2023-07-07T09:06:45.574Z,24.40
2023-07-07T09:09:22.600Z,24.50
2023-07-07T09:12:04.825Z,24.60
2023-07-07T09:14:33.252Z,24.80
2023-07-07T09:17:05.915Z,24.90
2023-07-07T09:19:40.091Z,25.10
2023-07-07T09:22:13.587Z,25.20
2023-07-07T09:24:47.804Z,25.30
2023-07-07T09:27:20.693Z,25.40
2023-07-07T09:29:51.234Z,25.50
2023-07-07T09:32:24.319Z,25.50
2023-07-07T09:34:53.842Z,25.60
2023-07-07T09:37:30.851Z,25.70
2023-07-07T09:40:13.301Z,25.80
2023-07-07T09:42:53.446Z,26.00
2023-07-07T09:45:35.281Z,26.10
2023-07-07T09:48:14.161Z,26.20
2023-07-07T09:50:49.226Z,26.30
2023-07-07T09:53:25.990Z,26.40
2023-07-07T09:55:57.651Z,26.40
2023-07-07T09:58:31.296Z,26.60
2023-07-07T10:01:03.061Z,26.60
2023-07-07T10:03:34.966Z,26.70
2023-07-07T10:06:07.203Z,26.80
2023-07-07T10:08:37.263Z,26.90
2023-07-07T10:13:54.939Z,27.00
2023-07-07T10:16:33.803Z,27.20
2023-07-07T10:19:03.279Z,27.20
2023-07-07T10:21:32.889Z,27.20
2023-07-07T10:24:02.784Z,27.30
2023-07-07T10:26:32.214Z,27.30
2023-07-07T10:29:02.143Z,27.40
2023-07-07T10:31:30.214Z,27.50
2023-07-07T10:34:01.239Z,27.60
2023-07-07T10:36:31.377Z,27.60
2023-07-07T10:39:01.439Z,27.60
2023-07-07T10:41:30.341Z,27.60
2023-07-07T10:43:58.093Z,27.60
2023-07-07T10:46:25.879Z,27.70
2023-07-07T10:48:57.705Z,27.70
2023-07-07T10:51:33.003Z,27.80
2023-07-07T10:54:08.392Z,27.90
2023-07-07T10:56:43.207Z,27.90
2023-07-07T10:59:34.624Z,27.90
2023-07-07T11:02:18.071Z,28.00
2023-07-07T11:05:21.855Z,28.00
2023-07-07T11:07:56.007Z,28.10
2023-07-07T11:10:50.760Z,28.10
2023-07-07T11:13:24.662Z,28.20
2023-07-07T11:16:02.852Z,28.20
2023-07-07T11:18:47.019Z,28.20
2023-07-07T11:21:23.686Z,28.30
2023-07-07T11:24:36.179Z,28.30
2023-07-07T11:27:40.913Z,28.20
2023-07-07T11:30:21.055Z,28.30
2023-07-07T11:32:59.995Z,28.30
2023-07-07T11:35:40.169Z,28.30
2023-07-07T11:38:25.198Z,28.30
2023-07-07T11:41:01.001Z,28.40
2023-07-07T11:44:03.448Z,28.40
2023-07-07T11:46:50.777Z,28.50
2023-07-07T11:49:34.861Z,28.60
2023-07-07T11:52:17.902Z,28.70
2023-07-07T11:54:59.190Z,28.70
2023-07-07T11:57:45.707Z,28.80
2023-07-07T12:00:28.009Z,28.80
2023-07-07T12:02:59.215Z,28.80
2023-07-07T12:05:32.217Z,28.90
2023-07-07T12:08:05.951Z,28.90
2023-07-07T12:10:46.785Z,29.00
2023-07-07T12:13:19.764Z,29.10
2023-07-07T12:15:52.983Z,29.10
2023-07-07T12:18:32.593Z,29.20
2023-07-07T12:21:08.634Z,29.30
2023-07-07T12:23:38.898Z,29.30
2023-07-07T12:26:16.498Z,29.40
2023-07-07T12:28:50.028Z,29.50
2023-07-07T12:31:21.969Z,29.60
2023-07-07T12:33:52.423Z,29.60
2023-07-07T12:36:22.192Z,29.70
2023-07-07T12:38:51.731Z,29.80
2023-07-07T12:41:23.794Z,29.90
2023-07-07T12:43:54.437Z,29.90
2023-07-07T12:46:26.958Z,29.90
2023-07-07T12:48:57.445Z,29.90
2023-07-07T12:51:30.053Z,30.00
2023-07-07T12:53:58.987Z,30.00
2023-07-07T12:56:28.670Z,30.10
2023-07-07T12:58:57.430Z,30.10
2023-07-07T13:01:32.854Z,30.20
2023-07-07T13:04:12.016Z,30.20
2023-07-07T13:06:43.554Z,30.30
2023-07-07T13:09:24.270Z,30.30
2023-07-07T13:11:54.204Z,30.30
2023-07-07T13:14:42.731Z,30.40
2023-07-07T13:17:14.936Z,30.40
2023-07-07T13:19:49.394Z,30.50
2023-07-07T13:22:22.217Z,30.50
2023-07-07T13:24:49.960Z,30.60
2023-07-07T13:27:23.691Z,30.60
2023-07-07T13:29:57.278Z,30.70
2023-07-07T13:32:34.016Z,30.70
2023-07-07T13:35:03.900Z,30.70
2023-07-07T13:37:33.560Z,30.70
2023-07-07T13:40:01.648Z,30.70
2023-07-07T13:42:31.733Z,30.70
2023-07-07T13:45:01.222Z,30.70
2023-07-07T13:47:32.437Z,30.80
2023-07-07T13:50:06.237Z,30.90
2023-07-07T13:52:43.594Z,31.00
2023-07-07T13:55:13.931Z,31.00
2023-07-07T13:57:42.515Z,31.10
2023-07-07T14:00:20.214Z,31.10
2023-07-07T14:02:48.466Z,31.20
2023-07-07T14:05:20.194Z,31.20
2023-07-07T14:07:50.196Z,31.30
2023-07-07T14:10:30.968Z,31.30
2023-07-07T14:12:59.162Z,31.40
2023-07-07T14:15:34.818Z,31.40
2023-07-07T14:18:07.423Z,31.40
2023-07-07T14:20:41.799Z,31.40
2023-07-07T14:23:13.069Z,31.50
2023-07-07T14:25:43.118Z,31.50
2023-07-07T14:28:16.310Z,31.50
2023-07-07T14:30:50.317Z,31.50
2023-07-07T14:33:27.663Z,31.60
2023-07-07T14:35:59.084Z,31.70
2023-07-07T14:38:35.527Z,31.70
2023-07-07T14:41:11.669Z,31.90
2023-07-07T14:43:42.296Z,32.00
2023-07-07T14:46:16.323Z,32.00
2023-07-07T14:48:50.299Z,32.10
2023-07-07T14:51:22.579Z,32.20
2023-07-07T14:53:56.726Z,32.20
2023-07-07T14:56:30.004Z,32.30
2023-07-07T14:58:59.256Z,32.30
2023-07-07T15:01:30.479Z,32.40
2023-07-07T15:04:00.924Z,32.50
2023-07-07T15:06:35.166Z,32.60
2023-07-07T15:09:05.658Z,32.60
2023-07-07T15:11:35.914Z,32.60
2023-07-07T15:14:05.401Z,32.70
2023-07-07T15:16:34.122Z,32.70
2023-07-07T15:19:08.016Z,32.80
2023-07-07T15:21:37.306Z,32.90
2023-07-07T15:24:05.462Z,32.90
2023-07-07T15:26:33.228Z,33.00
2023-07-07T15:29:02.143Z,33.10
2023-07-07T15:31:30.094Z,33.20
2023-07-07T15:33:57.908Z,33.10
2023-07-07T15:36:26.065Z,33.20
2023-07-07T15:38:58.644Z,33.20
2023-07-07T15:41:29.066Z,33.10
2023-07-07T15:43:57.647Z,33.10
2023-07-07T15:46:31.997Z,33.20
2023-07-07T15:48:59.783Z,33.10
2023-07-07T15:51:34.397Z,33.00
2023-07-07T15:54:05.350Z,33.00
2023-07-07T15:56:35.326Z,33.00
2023-07-07T15:59:05.583Z,33.10
2023-07-07T16:01:33.332Z,33.20
2023-07-07T16:04:01.283Z,33.20
2023-07-07T16:06:29.301Z,33.30
2023-07-07T16:08:57.050Z,33.40
2023-07-07T16:11:26.238Z,33.50
2023-07-07T16:13:55.124Z,33.50
2023-07-07T16:16:24.738Z,33.60
2023-07-07T16:18:52.637Z,33.70
2023-07-07T16:21:22.854Z,33.70
2023-07-07T16:23:51.568Z,33.80
2023-07-07T16:26:28.506Z,33.80
2023-07-07T16:28:57.631Z,33.70
2023-07-07T16:31:27.912Z,33.80
2023-07-07T16:33:55.776Z,33.90
2023-07-07T16:36:25.539Z,34.00
2023-07-07T16:38:54.238Z,34.00
2023-07-07T16:41:24.734Z,34.10
2023-07-07T16:43:56.099Z,34.20
2023-07-07T16:46:24.801Z,34.20
2023-07-07T16:48:54.826Z,34.30
2023-07-07T16:51:24.185Z,34.40
2023-07-07T16:53:52.261Z,34.50
2023-07-07T16:56:24.117Z,34.50
2023-07-07T16:58:53.308Z,34.30
2023-07-07T17:01:22.091Z,34.30
2023-07-07T17:03:50.001Z,34.30
2023-07-07T17:06:24.702Z,34.20
2023-07-07T17:08:53.167Z,34.10
2023-07-07T17:11:20.914Z,34.00
2023-07-07T17:13:48.840Z,33.60
2023-07-07T17:16:23.490Z,33.30
2023-07-07T17:18:53.023Z,32.90
2023-07-07T17:21:22.224Z,32.60
2023-07-07T17:23:51.149Z,32.30
2023-07-07T17:26:21.039Z,32.20
2023-07-07T17:28:48.836Z,31.90
2023-07-07T17:31:18.797Z,31.80
2023-07-07T17:33:48.272Z,31.60
2023-07-07T17:36:21.233Z,31.30
2023-07-07T17:38:50.004Z,31.10
2023-07-07T17:41:19.162Z,30.90
2023-07-07T17:43:47.073Z,30.80
2023-07-07T17:46:27.156Z,30.60
2023-07-07T17:48:58.845Z,30.40
2023-07-07T17:51:28.432Z,30.30
2023-07-07T17:53:58.031Z,30.10
2023-07-07T17:56:28.299Z,30.00
2023-07-07T17:58:56.095Z,29.90
2023-07-07T18:01:24.611Z,29.70
2023-07-07T18:03:52.837Z,29.60
2023-07-07T18:06:24.928Z,29.40
2023-07-07T18:08:53.681Z,29.30
2023-07-07T18:11:27.006Z,29.20
2023-07-07T18:13:55.262Z,29.20
2023-07-07T18:16:24.918Z,29.10
2023-07-07T18:19:32.448Z,29.00
2023-07-07T18:21:54.083Z,28.90
2023-07-07T18:24:24.102Z,28.80
2023-07-07T18:26:53.873Z,28.70
2023-07-07T18:29:23.858Z,28.60
2023-07-07T18:31:52.485Z,28.50
2023-07-07T18:34:20.236Z,28.40
2023-07-07T18:36:51.009Z,28.30
2023-07-07T18:39:24.494Z,28.20
2023-07-07T18:41:53.138Z,28.10
2023-07-07T18:44:22.087Z,28.00
2023-07-07T18:46:50.614Z,27.90
2023-07-07T18:49:18.928Z,27.80
2023-07-07T18:51:47.439Z,27.70
2023-07-07T18:54:18.702Z,27.60
2023-07-07T18:56:48.374Z,27.50
2023-07-07T18:59:18.912Z,27.40
2023-07-07T19:01:46.993Z,27.30
2023-07-07T19:04:14.809Z,27.20
2023-07-07T19:06:44.574Z,27.20
2023-07-07T19:09:18.655Z,27.10
2023-07-07T19:11:50.009Z,26.90
2023-07-07T19:14:18.130Z,26.90
2023-07-07T19:16:46.413Z,26.80
2023-07-07T19:19:20.395Z,26.70
2023-07-07T19:21:48.172Z,26.60
2023-07-07T19:24:15.916Z,26.50
2023-07-07T19:26:48.565Z,26.40
2023-07-07T19:29:16.368Z,26.40
2023-07-07T19:31:44.299Z,26.20
2023-07-07T19:34:13.260Z,26.10
2023-07-07T19:36:43.343Z,26.00
2023-07-07T19:39:16.459Z,25.90
2023-07-07T19:41:46.454Z,25.80
2023-07-07T19:44:14.560Z,25.70
2023-07-07T19:46:43.983Z,25.60
2023-07-07T19:49:17.475Z,25.50
2023-07-07T19:51:45.526Z,25.40
2023-07-07T19:54:13.304Z,25.30
2023-07-07T19:56:41.373Z,25.20
2023-07-07T19:59:19.564Z,25.10
2023-07-07T20:01:48.883Z,24.90
2023-07-07T20:04:18.633Z,24.80
2023-07-07T20:06:47.549Z,24.70
2023-07-07T20:09:17.367Z,24.60
2023-07-07T20:11:46.037Z,24.50
2023-07-07T20:14:15.239Z,24.40
2023-07-07T20:16:45.112Z,24.30
2023-07-07T20:19:14.308Z,24.20
2023-07-07T20:21:42.351Z,24.00
2023-07-07T20:24:15.733Z,24.00
2023-07-07T20:26:46.699Z,23.90
2023-07-07T20:29:18.133Z,23.80
2023-07-07T20:31:47.091Z,23.70
2023-07-07T20:34:17.174Z,23.60
2023-07-07T20:36:46.882Z,23.50
2023-07-07T20:39:16.686Z,23.40
2023-07-07T20:41:45.220Z,23.30
2023-07-07T20:44:13.049Z,23.20
2023-07-07T20:46:44.235Z,23.10
2023-07-07T20:49:14.835Z,23.00
2023-07-07T20:51:43.059Z,23.00
2023-07-07T20:54:11.018Z,22.90
2023-07-07T20:56:39.243Z,22.80
2023-07-07T20:59:21.562Z,22.70
2023-07-07T21:01:55.477Z,22.70
2023-07-07T21:04:23.718Z,22.60
2023-07-07T21:06:51.560Z,22.60
2023-07-07T21:09:20.056Z,22.60
2023-07-07T21:11:47.912Z,22.50
2023-07-07T21:14:15.721Z,22.50
2023-07-07T21:16:46.968Z,22.50
2023-07-07T21:19:16.799Z,22.50
2023-07-07T21:21:44.565Z,22.40
2023-07-07T21:24:12.354Z,22.30
2023-07-07T21:26:40.288Z,22.30
2023-07-07T21:29:11.135Z,22.20
2023-07-07T21:31:39.905Z,22.10
2023-07-07T21:34:08.143Z,22.00
2023-07-07T21:36:39.725Z,22.00
2023-07-07T21:39:25.973Z,21.90
2023-07-07T21:42:06.857Z,21.90
2023-07-07T21:44:39.891Z,21.80
2023-07-07T21:47:07.750Z,21.70
2023-07-07T21:49:35.489Z,21.70
2023-07-07T21:52:14.195Z,21.60
2023-07-07T21:54:41.991Z,21.60
2023-07-07T21:57:36.535Z,21.50
2023-07-07T22:00:11.341Z,21.50
2023-07-07T22:02:39.092Z,21.50
2023-07-07T22:05:06.971Z,21.40
2023-07-07T22:07:36.031Z,21.40
2023-07-07T22:10:34.621Z,21.40
2023-07-07T22:13:02.362Z,21.30
2023-07-07T22:15:30.247Z,21.30
2023-07-07T22:17:58.138Z,21.30
2023-07-07T22:20:33.814Z,21.30
2023-07-07T22:23:03.791Z,21.30
2023-07-07T22:25:33.915Z,21.30
2023-07-07T22:28:02.288Z,21.20
2023-07-07T22:30:34.456Z,21.20
2023-07-07T22:33:03.857Z,21.10
2023-07-07T22:35:32.011Z,21.10
2023-07-07T22:37:59.770Z,21.00
2023-07-07T22:40:31.567Z,21.00
2023-07-07T22:42:59.391Z,21.00
2023-07-07T22:45:27.696Z,21.00
2023-07-07T22:47:56.095Z,20.90
2023-07-07T22:50:26.214Z,20.90
2023-07-07T22:52:54.084Z,20.90
2023-07-07T22:55:23.697Z,20.90
2023-07-07T22:57:53.973Z,20.90
2023-07-07T23:00:25.029Z,20.90
2023-07-07T23:02:52.826Z,20.90
2023-07-07T23:05:21.911Z,20.90
2023-07-07T23:07:49.783Z,20.90
2023-07-07T23:10:19.578Z,20.90
2023-07-07T23:12:48.254Z,20.90
2023-07-07T23:15:19.369Z,20.90
2023-07-07T23:17:47.713Z,20.90
2023-07-07T23:20:18.746Z,20.90
2023-07-07T23:22:46.896Z,20.80
2023-07-07T23:25:15.364Z,20.80
2023-07-07T23:27:50.114Z,20.80
2023-07-07T23:30:38.121Z,20.80
2023-07-07T23:33:06.286Z,20.80
2023-07-07T23:35:34.635Z,20.70
2023-07-07T23:38:02.356Z,20.70
2023-07-07T23:40:31.898Z,20.70
2023-07-07T23:42:59.754Z,20.70
2023-07-07T23:45:30.022Z,20.70
2023-07-07T23:48:01.307Z,20.70
2023-07-07T23:50:33.522Z,20.70
2023-07-07T23:53:01.425Z,20.70
2023-07-07T23:55:32.426Z,20.70
2023-07-07T23:58:00.964Z,20.70
